sensor_id;sensor_type;location;lat;lon;timestamp;P1;durP1;ratioP1;P2;durP2;ratioP2
3747;SDS011;1889;50.058;8.688;2022-07-29T00:00:05;2.53;;;1.57;;
3747;SDS011;1889;50.058;8.688;2022-07-29T00:02:35;3.33;;;1.70;;
3747;SDS011;1889;50.058;8.688;2022-07-29T00:05:04;2.73;;;1.50;;
3747;SDS011;1889;50.058;8.688;2022-07-29T00:07:34;5.17;;;1.80;;
3747;SDS011;1889;50.058;8.688;2022-07-29T00:10:03;4.13;;;1.57;;
3747;SDS011;1889;50.058;8.688;2022-07-29T00:12:32;1.93;;;1.37;;
3747;SDS011;1889;50.058;8.688;2022-07-29T00:15:03;8.13;;;1.63;;
3747;SDS011;1889;50.058;8.688;2022-07-29T00:17:32;3.37;;;1.80;;
3747;SDS011;1889;50.058;8.688;2022-07-29T00:20:01;3.57;;;1.70;;
3747;SDS011;1889;50.058;8.688;2022-07-29T00:22:31;3.77;;;1.60;;
3747;SDS011;1889;50.058;8.688;2022-07-29T00:25:00;2.23;;;1.30;;
3747;SDS011;1889;50.058;8.688;2022-07-29T00:27:29;5.43;;;1.63;;
3747;SDS011;1889;50.058;8.688;2022-07-29T00:29:58;4.30;;;1.47;;
3747;SDS011;1889;50.058;8.688;2022-07-29T00:32:27;5.80;;;1.90;;
3747;SDS011;1889;50.058;8.688;2022-07-29T00:34:56;4.73;;;1.30;;
3747;SDS011;1889;50.058;8.688;2022-07-29T00:37:42;4.80;;;2.30;;
3747;SDS011;1889;50.058;8.688;2022-07-29T00:40:11;1.60;;;1.17;;
3747;SDS011;1889;50.058;8.688;2022-07-29T00:42:47;6.17;;;2.07;;
3747;SDS011;1889;50.058;8.688;2022-07-29T00:45:12;4.67;;;1.70;;
3747;SDS011;1889;50.058;8.688;2022-07-29T00:47:42;3.40;;;1.70;;
3747;SDS011;1889;50.058;8.688;2022-07-29T00:50:12;3.23;;;1.80;;
3747;SDS011;1889;50.058;8.688;2022-07-29T00:52:42;5.70;;;2.23;;
3747;SDS011;1889;50.058;8.688;2022-07-29T00:55:12;4.70;;;1.60;;
3747;SDS011;1889;50.058;8.688;2022-07-29T00:57:43;5.17;;;1.63;;
3747;SDS011;1889;50.058;8.688;2022-07-29T01:00:14;1.70;;;1.50;;
3747;SDS011;1889;50.058;8.688;2022-07-29T01:02:45;2.47;;;1.77;;
3747;SDS011;1889;50.058;8.688;2022-07-29T01:05:17;2.10;;;1.40;;
3747;SDS011;1889;50.058;8.688;2022-07-29T01:07:49;5.07;;;1.70;;
3747;SDS011;1889;50.058;8.688;2022-07-29T01:10:21;2.60;;;1.60;;
3747;SDS011;1889;50.058;8.688;2022-07-29T01:12:52;2.60;;;1.60;;
3747;SDS011;1889;50.058;8.688;2022-07-29T01:15:24;3.73;;;1.57;;
3747;SDS011;1889;50.058;8.688;2022-07-29T01:18:01;5.50;;;1.90;;
3747;SDS011;1889;50.058;8.688;2022-07-29T01:20:37;5.97;;;1.93;;
3747;SDS011;1889;50.058;8.688;2022-07-29T01:23:32;2.80;;;1.50;;
3747;SDS011;1889;50.058;8.688;2022-07-29T01:26:16;2.27;;;1.80;;
3747;SDS011;1889;50.058;8.688;2022-07-29T01:29:02;6.40;;;1.67;;
3747;SDS011;1889;50.058;8.688;2022-07-29T01:31:39;1.53;;;1.43;;
3747;SDS011;1889;50.058;8.688;2022-07-29T01:34:28;4.03;;;1.93;;
3747;SDS011;1889;50.058;8.688;2022-07-29T01:37:04;3.50;;;2.00;;
3747;SDS011;1889;50.058;8.688;2022-07-29T01:39:35;5.67;;;1.73;;
3747;SDS011;1889;50.058;8.688;2022-07-29T01:42:16;7.30;;;1.73;;
3747;SDS011;1889;50.058;8.688;2022-07-29T01:44:57;2.93;;;2.00;;
3747;SDS011;1889;50.058;8.688;2022-07-29T01:48:21;4.83;;;2.03;;
3747;SDS011;1889;50.058;8.688;2022-07-29T01:50:37;5.70;;;1.80;;
3747;SDS011;1889;50.058;8.688;2022-07-29T01:53:08;3.93;;;1.60;;
3747;SDS011;1889;50.058;8.688;2022-07-29T01:55:40;5.20;;;1.90;;
3747;SDS011;1889;50.058;8.688;2022-07-29T01:58:11;3.17;;;1.80;;
3747;SDS011;1889;50.058;8.688;2022-07-29T02:00:42;2.03;;;1.60;;
3747;SDS011;1889;50.058;8.688;2022-07-29T02:03:13;3.23;;;1.90;;
3747;SDS011;1889;50.058;8.688;2022-07-29T02:05:45;5.10;;;1.70;;
3747;SDS011;1889;50.058;8.688;2022-07-29T02:08:15;4.03;;;2.00;;
3747;SDS011;1889;50.058;8.688;2022-07-29T02:10:47;5.50;;;1.90;;
3747;SDS011;1889;50.058;8.688;2022-07-29T02:13:18;3.73;;;2.13;;
3747;SDS011;1889;50.058;8.688;2022-07-29T02:15:51;6.63;;;1.80;;
3747;SDS011;1889;50.058;8.688;2022-07-29T02:18:23;4.37;;;1.97;;
3747;SDS011;1889;50.058;8.688;2022-07-29T02:20:54;2.47;;;1.73;;
3747;SDS011;1889;50.058;8.688;2022-07-29T02:23:26;6.63;;;1.83;;
3747;SDS011;1889;50.058;8.688;2022-07-29T02:25:56;1.97;;;1.70;;
3747;SDS011;1889;50.058;8.688;2022-07-29T02:28:27;2.53;;;1.80;;
3747;SDS011;1889;50.058;8.688;2022-07-29T02:30:59;2.77;;;1.60;;
3747;SDS011;1889;50.058;8.688;2022-07-29T02:33:30;5.70;;;1.77;;
3747;SDS011;1889;50.058;8.688;2022-07-29T02:36:01;3.43;;;1.87;;
3747;SDS011;1889;50.058;8.688;2022-07-29T02:38:31;4.57;;;1.73;;
3747;SDS011;1889;50.058;8.688;2022-07-29T02:41:28;5.70;;;2.10;;
3747;SDS011;1889;50.058;8.688;2022-07-29T02:44:08;7.67;;;1.67;;
3747;SDS011;1889;50.058;8.688;2022-07-29T02:46:47;5.07;;;2.40;;
3747;SDS011;1889;50.058;8.688;2022-07-29T02:49:36;4.67;;;2.17;;
3747;SDS011;1889;50.058;8.688;2022-07-29T02:52:16;5.63;;;2.00;;
3747;SDS011;1889;50.058;8.688;2022-07-29T02:55:07;2.77;;;1.97;;
3747;SDS011;1889;50.058;8.688;2022-07-29T02:57:44;3.97;;;2.30;;
3747;SDS011;1889;50.058;8.688;2022-07-29T03:00:26;3.63;;;2.10;;
3747;SDS011;1889;50.058;8.688;2022-07-29T03:02:58;4.23;;;1.80;;
3747;SDS011;1889;50.058;8.688;2022-07-29T03:05:28;4.77;;;2.40;;
3747;SDS011;1889;50.058;8.688;2022-07-29T03:08:00;2.57;;;2.00;;
3747;SDS011;1889;50.058;8.688;2022-07-29T03:10:31;4.03;;;1.93;;
3747;SDS011;1889;50.058;8.688;2022-07-29T03:13:00;5.40;;;2.40;;
3747;SDS011;1889;50.058;8.688;2022-07-29T03:15:30;3.00;;;2.10;;
3747;SDS011;1889;50.058;8.688;2022-07-29T03:17:59;3.07;;;2.00;;
3747;SDS011;1889;50.058;8.688;2022-07-29T03:20:29;4.23;;;2.20;;
3747;SDS011;1889;50.058;8.688;2022-07-29T03:22:58;5.30;;;2.20;;
3747;SDS011;1889;50.058;8.688;2022-07-29T03:25:27;3.23;;;2.10;;
3747;SDS011;1889;50.058;8.688;2022-07-29T03:27:56;2.50;;;2.30;;
3747;SDS011;1889;50.058;8.688;2022-07-29T03:30:25;3.37;;;2.40;;
3747;SDS011;1889;50.058;8.688;2022-07-29T03:32:56;5.13;;;2.20;;
3747;SDS011;1889;50.058;8.688;2022-07-29T03:35:25;4.37;;;2.30;;
3747;SDS011;1889;50.058;8.688;2022-07-29T03:37:54;4.13;;;2.27;;
3747;SDS011;1889;50.058;8.688;2022-07-29T03:40:31;2.63;;;2.10;;
3747;SDS011;1889;50.058;8.688;2022-07-29T03:43:01;5.73;;;2.50;;
3747;SDS011;1889;50.058;8.688;2022-07-29T03:45:32;3.37;;;3.07;;
3747;SDS011;1889;50.058;8.688;2022-07-29T03:48:05;3.90;;;2.13;;
3747;SDS011;1889;50.058;8.688;2022-07-29T03:50:34;4.27;;;2.40;;
3747;SDS011;1889;50.058;8.688;2022-07-29T03:53:04;5.53;;;2.50;;
3747;SDS011;1889;50.058;8.688;2022-07-29T03:55:41;3.40;;;2.40;;
3747;SDS011;1889;50.058;8.688;2022-07-29T03:58:11;4.60;;;2.20;;
3747;SDS011;1889;50.058;8.688;2022-07-29T04:00:41;2.80;;;2.53;;
3747;SDS011;1889;50.058;8.688;2022-07-29T04:03:11;5.30;;;2.40;;
3747;SDS011;1889;50.058;8.688;2022-07-29T04:05:41;3.27;;;2.30;;
3747;SDS011;1889;50.058;8.688;2022-07-29T04:08:10;4.03;;;2.27;;
3747;SDS011;1889;50.058;8.688;2022-07-29T04:10:39;3.60;;;2.23;;
3747;SDS011;1889;50.058;8.688;2022-07-29T04:13:08;4.77;;;2.30;;
3747;SDS011;1889;50.058;8.688;2022-07-29T04:15:37;2.77;;;2.40;;
3747;SDS011;1889;50.058;8.688;2022-07-29T04:18:06;2.93;;;2.10;;
3747;SDS011;1889;50.058;8.688;2022-07-29T04:20:35;2.97;;;2.40;;
3747;SDS011;1889;50.058;8.688;2022-07-29T04:23:04;3.73;;;2.30;;
3747;SDS011;1889;50.058;8.688;2022-07-29T04:25:36;6.07;;;2.70;;
3747;SDS011;1889;50.058;8.688;2022-07-29T04:28:10;5.57;;;2.50;;
3747;SDS011;1889;50.058;8.688;2022-07-29T04:30:39;3.60;;;2.20;;
3747;SDS011;1889;50.058;8.688;2022-07-29T04:33:08;4.83;;;2.47;;
3747;SDS011;1889;50.058;8.688;2022-07-29T04:35:37;4.60;;;1.73;;
3747;SDS011;1889;50.058;8.688;2022-07-29T04:38:06;3.80;;;2.13;;
3747;SDS011;1889;50.058;8.688;2022-07-29T04:40:35;3.63;;;2.23;;
3747;SDS011;1889;50.058;8.688;2022-07-29T04:43:04;4.20;;;2.23;;
3747;SDS011;1889;50.058;8.688;2022-07-29T04:45:33;4.30;;;2.27;;
3747;SDS011;1889;50.058;8.688;2022-07-29T04:48:02;3.93;;;1.80;;
3747;SDS011;1889;50.058;8.688;2022-07-29T04:50:32;4.23;;;1.70;;
3747;SDS011;1889;50.058;8.688;2022-07-29T04:53:01;4.70;;;2.17;;
3747;SDS011;1889;50.058;8.688;2022-07-29T04:55:30;4.93;;;2.30;;
3747;SDS011;1889;50.058;8.688;2022-07-29T04:57:59;1.77;;;1.67;;
3747;SDS011;1889;50.058;8.688;2022-07-29T05:00:28;6.07;;;2.27;;
3747;SDS011;1889;50.058;8.688;2022-07-29T05:02:57;7.63;;;2.20;;
3747;SDS011;1889;50.058;8.688;2022-07-29T05:05:26;5.23;;;2.47;;
3747;SDS011;1889;50.058;8.688;2022-07-29T05:07:55;2.27;;;1.90;;
3747;SDS011;1889;50.058;8.688;2022-07-29T05:10:24;4.67;;;2.40;;
3747;SDS011;1889;50.058;8.688;2022-07-29T05:12:54;5.77;;;2.87;;
3747;SDS011;1889;50.058;8.688;2022-07-29T05:15:23;6.03;;;2.23;;
3747;SDS011;1889;50.058;8.688;2022-07-29T05:17:52;4.67;;;2.00;;
3747;SDS011;1889;50.058;8.688;2022-07-29T05:20:21;8.83;;;2.87;;
3747;SDS011;1889;50.058;8.688;2022-07-29T05:22:52;3.13;;;2.10;;
3747;SDS011;1889;50.058;8.688;2022-07-29T05:25:20;4.50;;;2.00;;
3747;SDS011;1889;50.058;8.688;2022-07-29T05:27:50;3.17;;;2.10;;
3747;SDS011;1889;50.058;8.688;2022-07-29T05:30:19;6.50;;;2.27;;
3747;SDS011;1889;50.058;8.688;2022-07-29T05:32:48;7.13;;;2.10;;
3747;SDS011;1889;50.058;8.688;2022-07-29T05:35:17;2.93;;;2.13;;
3747;SDS011;1889;50.058;8.688;2022-07-29T05:37:46;3.60;;;2.00;;
3747;SDS011;1889;50.058;8.688;2022-07-29T05:40:16;3.43;;;1.83;;
3747;SDS011;1889;50.058;8.688;2022-07-29T05:42:46;4.27;;;2.30;;
3747;SDS011;1889;50.058;8.688;2022-07-29T05:45:15;2.20;;;1.83;;
3747;SDS011;1889;50.058;8.688;2022-07-29T05:47:44;4.27;;;2.00;;
3747;SDS011;1889;50.058;8.688;2022-07-29T05:50:13;4.47;;;2.50;;
3747;SDS011;1889;50.058;8.688;2022-07-29T05:52:42;4.43;;;2.40;;
3747;SDS011;1889;50.058;8.688;2022-07-29T05:55:13;5.33;;;2.07;;
3747;SDS011;1889;50.058;8.688;2022-07-29T05:57:42;5.73;;;2.20;;
3747;SDS011;1889;50.058;8.688;2022-07-29T06:00:12;3.83;;;1.90;;
3747;SDS011;1889;50.058;8.688;2022-07-29T06:02:41;6.07;;;2.53;;
3747;SDS011;1889;50.058;8.688;2022-07-29T06:05:10;4.47;;;2.43;;
3747;SDS011;1889;50.058;8.688;2022-07-29T06:07:39;3.17;;;2.00;;
3747;SDS011;1889;50.058;8.688;2022-07-29T06:10:08;4.67;;;2.33;;
3747;SDS011;1889;50.058;8.688;2022-07-29T06:12:37;2.07;;;1.77;;
3747;SDS011;1889;50.058;8.688;2022-07-29T06:15:07;5.40;;;2.30;;
3747;SDS011;1889;50.058;8.688;2022-07-29T06:17:36;2.83;;;1.93;;
3747;SDS011;1889;50.058;8.688;2022-07-29T06:20:05;3.87;;;2.10;;
3747;SDS011;1889;50.058;8.688;2022-07-29T06:22:35;3.03;;;1.90;;
3747;SDS011;1889;50.058;8.688;2022-07-29T06:25:04;4.20;;;2.20;;
3747;SDS011;1889;50.058;8.688;2022-07-29T06:27:33;6.27;;;2.30;;
3747;SDS011;1889;50.058;8.688;2022-07-29T06:30:02;8.57;;;2.57;;
3747;SDS011;1889;50.058;8.688;2022-07-29T06:32:33;3.07;;;2.67;;
3747;SDS011;1889;50.058;8.688;2022-07-29T06:35:04;3.63;;;2.13;;
3747;SDS011;1889;50.058;8.688;2022-07-29T06:37:33;6.50;;;2.57;;
3747;SDS011;1889;50.058;8.688;2022-07-29T06:40:03;4.20;;;2.23;;
3747;SDS011;1889;50.058;8.688;2022-07-29T06:42:50;8.03;;;2.70;;
3747;SDS011;1889;50.058;8.688;2022-07-29T06:45:19;6.70;;;2.30;;
3747;SDS011;1889;50.058;8.688;2022-07-29T06:47:48;2.37;;;1.90;;
3747;SDS011;1889;50.058;8.688;2022-07-29T06:50:17;4.30;;;1.83;;
3747;SDS011;1889;50.058;8.688;2022-07-29T06:52:47;2.43;;;1.97;;
3747;SDS011;1889;50.058;8.688;2022-07-29T06:55:16;3.60;;;2.17;;
3747;SDS011;1889;50.058;8.688;2022-07-29T06:57:46;4.50;;;2.20;;
3747;SDS011;1889;50.058;8.688;2022-07-29T07:00:15;3.43;;;2.00;;
3747;SDS011;1889;50.058;8.688;2022-07-29T07:02:44;8.23;;;2.30;;
3747;SDS011;1889;50.058;8.688;2022-07-29T07:05:13;3.93;;;2.47;;
3747;SDS011;1889;50.058;8.688;2022-07-29T07:07:42;4.70;;;2.30;;
3747;SDS011;1889;50.058;8.688;2022-07-29T07:10:11;2.83;;;1.90;;
3747;SDS011;1889;50.058;8.688;2022-07-29T07:12:40;2.90;;;2.03;;
3747;SDS011;1889;50.058;8.688;2022-07-29T07:15:09;6.07;;;2.17;;
3747;SDS011;1889;50.058;8.688;2022-07-29T07:17:38;7.47;;;2.37;;
3747;SDS011;1889;50.058;8.688;2022-07-29T07:20:07;5.87;;;2.20;;
3747;SDS011;1889;50.058;8.688;2022-07-29T07:22:36;3.23;;;2.00;;
3747;SDS011;1889;50.058;8.688;2022-07-29T07:25:06;7.00;;;2.00;;
3747;SDS011;1889;50.058;8.688;2022-07-29T07:27:35;3.50;;;2.00;;
3747;SDS011;1889;50.058;8.688;2022-07-29T07:30:06;3.43;;;2.17;;
3747;SDS011;1889;50.058;8.688;2022-07-29T07:32:36;3.77;;;2.07;;
3747;SDS011;1889;50.058;8.688;2022-07-29T07:35:05;5.50;;;2.20;;
3747;SDS011;1889;50.058;8.688;2022-07-29T07:37:36;2.73;;;2.00;;
3747;SDS011;1889;50.058;8.688;2022-07-29T07:40:07;4.13;;;2.10;;
3747;SDS011;1889;50.058;8.688;2022-07-29T07:42:40;4.20;;;2.13;;
3747;SDS011;1889;50.058;8.688;2022-07-29T07:45:10;3.97;;;1.77;;
3747;SDS011;1889;50.058;8.688;2022-07-29T07:47:39;4.23;;;2.03;;
3747;SDS011;1889;50.058;8.688;2022-07-29T07:50:09;2.63;;;2.20;;
3747;SDS011;1889;50.058;8.688;2022-07-29T07:52:52;3.23;;;2.40;;
3747;SDS011;1889;50.058;8.688;2022-07-29T07:55:25;6.33;;;2.30;;
3747;SDS011;1889;50.058;8.688;2022-07-29T07:57:54;3.10;;;2.17;;
3747;SDS011;1889;50.058;8.688;2022-07-29T08:00:23;4.23;;;2.37;;
3747;SDS011;1889;50.058;8.688;2022-07-29T08:02:52;3.97;;;2.20;;
3747;SDS011;1889;50.058;8.688;2022-07-29T08:05:21;4.47;;;2.07;;
3747;SDS011;1889;50.058;8.688;2022-07-29T08:07:50;4.73;;;2.07;;
3747;SDS011;1889;50.058;8.688;2022-07-29T08:10:20;4.90;;;2.50;;
3747;SDS011;1889;50.058;8.688;2022-07-29T08:13:07;2.40;;;2.20;;
3747;SDS011;1889;50.058;8.688;2022-07-29T08:15:39;4.77;;;2.40;;
3747;SDS011;1889;50.058;8.688;2022-07-29T08:18:09;6.77;;;2.83;;
3747;SDS011;1889;50.058;8.688;2022-07-29T08:20:39;2.30;;;2.10;;
3747;SDS011;1889;50.058;8.688;2022-07-29T08:23:08;6.07;;;2.50;;
3747;SDS011;1889;50.058;8.688;2022-07-29T08:25:37;3.40;;;2.20;;
3747;SDS011;1889;50.058;8.688;2022-07-29T08:28:06;4.63;;;2.40;;
3747;SDS011;1889;50.058;8.688;2022-07-29T08:30:35;3.83;;;2.17;;
3747;SDS011;1889;50.058;8.688;2022-07-29T08:33:04;2.70;;;2.10;;
3747;SDS011;1889;50.058;8.688;2022-07-29T08:35:33;5.20;;;2.30;;
3747;SDS011;1889;50.058;8.688;2022-07-29T08:38:02;5.00;;;2.10;;
3747;SDS011;1889;50.058;8.688;2022-07-29T08:40:31;2.80;;;2.20;;
3747;SDS011;1889;50.058;8.688;2022-07-29T08:43:04;5.07;;;2.13;;
3747;SDS011;1889;50.058;8.688;2022-07-29T08:45:42;2.40;;;1.80;;
3747;SDS011;1889;50.058;8.688;2022-07-29T08:48:13;3.57;;;2.07;;
3747;SDS011;1889;50.058;8.688;2022-07-29T08:50:44;2.63;;;2.00;;
3747;SDS011;1889;50.058;8.688;2022-07-29T08:53:15;2.53;;;1.70;;
3747;SDS011;1889;50.058;8.688;2022-07-29T08:55:46;1.40;;;1.30;;
3747;SDS011;1889;50.058;8.688;2022-07-29T08:58:16;4.10;;;2.27;;
3747;SDS011;1889;50.058;8.688;2022-07-29T09:00:50;4.33;;;2.37;;
3747;SDS011;1889;50.058;8.688;2022-07-29T09:03:19;3.67;;;2.10;;
3747;SDS011;1889;50.058;8.688;2022-07-29T09:05:50;5.03;;;2.70;;
3747;SDS011;1889;50.058;8.688;2022-07-29T09:08:20;3.60;;;2.83;;
3747;SDS011;1889;50.058;8.688;2022-07-29T09:10:50;4.30;;;2.50;;
3747;SDS011;1889;50.058;8.688;2022-07-29T09:13:20;3.83;;;2.60;;
3747;SDS011;1889;50.058;8.688;2022-07-29T09:15:49;4.87;;;2.43;;
3747;SDS011;1889;50.058;8.688;2022-07-29T09:18:42;3.90;;;2.70;;
3747;SDS011;1889;50.058;8.688;2022-07-29T09:21:02;5.67;;;2.80;;
3747;SDS011;1889;50.058;8.688;2022-07-29T09:24:03;2.93;;;2.43;;
3747;SDS011;1889;50.058;8.688;2022-07-29T09:26:35;5.80;;;2.80;;
3747;SDS011;1889;50.058;8.688;2022-07-29T09:29:09;4.50;;;3.50;;
3747;SDS011;1889;50.058;8.688;2022-07-29T09:31:43;4.27;;;2.53;;
3747;SDS011;1889;50.058;8.688;2022-07-29T09:34:14;4.17;;;2.50;;
3747;SDS011;1889;50.058;8.688;2022-07-29T09:36:52;7.20;;;2.50;;
3747;SDS011;1889;50.058;8.688;2022-07-29T09:39:26;5.60;;;2.57;;
3747;SDS011;1889;50.058;8.688;2022-07-29T09:42:02;3.60;;;3.07;;
3747;SDS011;1889;50.058;8.688;2022-07-29T09:44:42;4.27;;;2.30;;
3747;SDS011;1889;50.058;8.688;2022-07-29T09:47:12;5.07;;;2.90;;
3747;SDS011;1889;50.058;8.688;2022-07-29T09:50:02;3.50;;;3.20;;
3747;SDS011;1889;50.058;8.688;2022-07-29T09:52:27;3.20;;;2.63;;
3747;SDS011;1889;50.058;8.688;2022-07-29T09:55:04;4.27;;;2.80;;
3747;SDS011;1889;50.058;8.688;2022-07-29T09:57:37;3.57;;;2.27;;
3747;SDS011;1889;50.058;8.688;2022-07-29T10:00:10;4.53;;;2.37;;
3747;SDS011;1889;50.058;8.688;2022-07-29T10:02:45;6.80;;;2.80;;
3747;SDS011;1889;50.058;8.688;2022-07-29T10:05:25;3.70;;;2.50;;
3747;SDS011;1889;50.058;8.688;2022-07-29T10:07:58;5.07;;;2.43;;
3747;SDS011;1889;50.058;8.688;2022-07-29T10:10:28;3.77;;;2.20;;
3747;SDS011;1889;50.058;8.688;2022-07-29T10:13:01;5.27;;;2.50;;
3747;SDS011;1889;50.058;8.688;2022-07-29T10:15:33;3.83;;;3.17;;
3747;SDS011;1889;50.058;8.688;2022-07-29T10:18:07;4.90;;;2.87;;
3747;SDS011;1889;50.058;8.688;2022-07-29T10:20:38;3.53;;;2.83;;
3747;SDS011;1889;50.058;8.688;2022-07-29T10:23:08;3.43;;;2.33;;
3747;SDS011;1889;50.058;8.688;2022-07-29T10:25:37;3.77;;;2.57;;
3747;SDS011;1889;50.058;8.688;2022-07-29T10:28:06;3.83;;;2.37;;
3747;SDS011;1889;50.058;8.688;2022-07-29T10:30:36;2.77;;;2.40;;
3747;SDS011;1889;50.058;8.688;2022-07-29T10:41:18;1.40;;;1.30;;
3747;SDS011;1889;50.058;8.688;2022-07-29T10:44:01;2.17;;;1.57;;
3747;SDS011;1889;50.058;8.688;2022-07-29T10:46:40;1.93;;;1.33;;
3747;SDS011;1889;50.058;8.688;2022-07-29T10:57:27;1999.90;;;999.90;;
3747;SDS011;1889;50.058;8.688;2022-07-29T11:02:43;1999.90;;;999.90;;
3747;SDS011;1889;50.058;8.688;2022-07-29T11:05:15;1999.90;;;999.90;;
3747;SDS011;1889;50.058;8.688;2022-07-29T11:08:30;1999.90;;;999.90;;
3747;SDS011;1889;50.058;8.688;2022-07-29T11:10:36;1999.90;;;999.90;;
3747;SDS011;1889;50.058;8.688;2022-07-29T11:13:05;1999.90;;;999.90;;
3747;SDS011;1889;50.058;8.688;2022-07-29T11:15:53;5.97;;;2.83;;
3747;SDS011;1889;50.058;8.688;2022-07-29T11:18:23;4.57;;;3.17;;
3747;SDS011;1889;50.058;8.688;2022-07-29T11:20:52;5.70;;;3.20;;
3747;SDS011;1889;50.058;8.688;2022-07-29T11:23:27;6.57;;;3.30;;
3747;SDS011;1889;50.058;8.688;2022-07-29T11:31:45;4.50;;;2.90;;
3747;SDS011;1889;50.058;8.688;2022-07-29T11:34:28;2.63;;;2.43;;
3747;SDS011;1889;50.058;8.688;2022-07-29T11:39:43;6.47;;;3.57;;
3747;SDS011;1889;50.058;8.688;2022-07-29T11:44:54;8.47;;;2.97;;
3747;SDS011;1889;50.058;8.688;2022-07-29T11:47:28;5.67;;;3.23;;
3747;SDS011;1889;50.058;8.688;2022-07-29T11:49:58;3.07;;;2.80;;
3747;SDS011;1889;50.058;8.688;2022-07-29T11:52:35;3.40;;;2.80;;
3747;SDS011;1889;50.058;8.688;2022-07-29T11:55:07;5.67;;;3.10;;
3747;SDS011;1889;50.058;8.688;2022-07-29T11:57:37;8.20;;;3.50;;
3747;SDS011;1889;50.058;8.688;2022-07-29T12:00:08;3.00;;;2.80;;
3747;SDS011;1889;50.058;8.688;2022-07-29T12:02:42;4.80;;;2.93;;
3747;SDS011;1889;50.058;8.688;2022-07-29T12:05:12;4.57;;;3.00;;
3747;SDS011;1889;50.058;8.688;2022-07-29T12:07:41;2.47;;;2.27;;
3747;SDS011;1889;50.058;8.688;2022-07-29T12:10:10;2.87;;;2.30;;
3747;SDS011;1889;50.058;8.688;2022-07-29T12:12:39;3.33;;;3.00;;
3747;SDS011;1889;50.058;8.688;2022-07-29T12:15:15;3.77;;;2.70;;
3747;SDS011;1889;50.058;8.688;2022-07-29T12:17:47;5.33;;;3.00;;
3747;SDS011;1889;50.058;8.688;2022-07-29T12:20:23;5.27;;;2.83;;
3747;SDS011;1889;50.058;8.688;2022-07-29T12:22:53;4.57;;;3.20;;
3747;SDS011;1889;50.058;8.688;2022-07-29T12:25:23;3.33;;;2.90;;
3747;SDS011;1889;50.058;8.688;2022-07-29T12:28:03;4.30;;;3.17;;
3747;SDS011;1889;50.058;8.688;2022-07-29T12:30:38;4.63;;;3.00;;
3747;SDS011;1889;50.058;8.688;2022-07-29T12:33:12;3.93;;;3.23;;
3747;SDS011;1889;50.058;8.688;2022-07-29T12:35:58;5.43;;;2.97;;
3747;SDS011;1889;50.058;8.688;2022-07-29T12:38:29;5.90;;;3.30;;
3747;SDS011;1889;50.058;8.688;2022-07-29T12:40:58;4.23;;;3.10;;
3747;SDS011;1889;50.058;8.688;2022-07-29T12:43:27;4.40;;;3.27;;
3747;SDS011;1889;50.058;8.688;2022-07-29T12:45:56;4.37;;;3.27;;
3747;SDS011;1889;50.058;8.688;2022-07-29T12:48:32;4.73;;;3.27;;
3747;SDS011;1889;50.058;8.688;2022-07-29T12:51:02;6.90;;;3.20;;
3747;SDS011;1889;50.058;8.688;2022-07-29T12:53:34;5.43;;;2.93;;
3747;SDS011;1889;50.058;8.688;2022-07-29T12:56:04;3.47;;;3.10;;
3747;SDS011;1889;50.058;8.688;2022-07-29T12:58:38;4.43;;;2.83;;
3747;SDS011;1889;50.058;8.688;2022-07-29T13:01:09;3.10;;;2.90;;
3747;SDS011;1889;50.058;8.688;2022-07-29T13:03:45;4.67;;;3.10;;
3747;SDS011;1889;50.058;8.688;2022-07-29T13:09:07;4.07;;;3.27;;
3747;SDS011;1889;50.058;8.688;2022-07-29T13:11:39;3.53;;;2.90;;
3747;SDS011;1889;50.058;8.688;2022-07-29T13:14:10;3.57;;;2.87;;
3747;SDS011;1889;50.058;8.688;2022-07-29T13:19:36;3.13;;;2.80;;
3747;SDS011;1889;50.058;8.688;2022-07-29T13:22:04;3.63;;;3.17;;
3747;SDS011;1889;50.058;8.688;2022-07-29T13:24:33;5.80;;;2.77;;
3747;SDS011;1889;50.058;8.688;2022-07-29T13:27:04;2.83;;;2.53;;
3747;SDS011;1889;50.058;8.688;2022-07-29T13:29:33;3.37;;;3.03;;
3747;SDS011;1889;50.058;8.688;2022-07-29T13:32:02;4.57;;;2.80;;
3747;SDS011;1889;50.058;8.688;2022-07-29T13:34:31;6.23;;;3.20;;
3747;SDS011;1889;50.058;8.688;2022-07-29T13:37:00;3.33;;;3.00;;
3747;SDS011;1889;50.058;8.688;2022-07-29T13:39:30;9.70;;;3.63;;
3747;SDS011;1889;50.058;8.688;2022-07-29T13:41:59;3.23;;;2.90;;
3747;SDS011;1889;50.058;8.688;2022-07-29T13:44:28;3.23;;;2.80;;
3747;SDS011;1889;50.058;8.688;2022-07-29T13:46:57;6.07;;;3.10;;
3747;SDS011;1889;50.058;8.688;2022-07-29T13:49:28;3.33;;;2.70;;
3747;SDS011;1889;50.058;8.688;2022-07-29T13:51:57;3.03;;;2.70;;
3747;SDS011;1889;50.058;8.688;2022-07-29T13:54:26;3.13;;;2.67;;
3747;SDS011;1889;50.058;8.688;2022-07-29T13:56:56;3.63;;;2.83;;
3747;SDS011;1889;50.058;8.688;2022-07-29T13:59:25;4.87;;;2.70;;
3747;SDS011;1889;50.058;8.688;2022-07-29T14:01:54;4.43;;;2.80;;
3747;SDS011;1889;50.058;8.688;2022-07-29T14:04:23;3.50;;;2.90;;
3747;SDS011;1889;50.058;8.688;2022-07-29T14:06:52;3.30;;;3.00;;
3747;SDS011;1889;50.058;8.688;2022-07-29T14:09:21;3.53;;;2.70;;
3747;SDS011;1889;50.058;8.688;2022-07-29T14:11:50;5.53;;;3.43;;
3747;SDS011;1889;50.058;8.688;2022-07-29T14:14:20;5.60;;;3.00;;
3747;SDS011;1889;50.058;8.688;2022-07-29T14:16:49;3.70;;;3.03;;
3747;SDS011;1889;50.058;8.688;2022-07-29T14:19:18;4.43;;;3.10;;
3747;SDS011;1889;50.058;8.688;2022-07-29T14:21:47;3.50;;;3.20;;
3747;SDS011;1889;50.058;8.688;2022-07-29T14:24:16;4.30;;;3.10;;
3747;SDS011;1889;50.058;8.688;2022-07-29T14:26:45;3.70;;;3.17;;
3747;SDS011;1889;50.058;8.688;2022-07-29T14:29:14;3.00;;;2.70;;
3747;SDS011;1889;50.058;8.688;2022-07-29T14:31:43;3.60;;;3.03;;
3747;SDS011;1889;50.058;8.688;2022-07-29T14:34:12;5.43;;;3.20;;
3747;SDS011;1889;50.058;8.688;2022-07-29T14:36:42;3.90;;;3.00;;
3747;SDS011;1889;50.058;8.688;2022-07-29T14:39:11;3.90;;;3.03;;
3747;SDS011;1889;50.058;8.688;2022-07-29T14:41:40;4.20;;;3.13;;
3747;SDS011;1889;50.058;8.688;2022-07-29T14:44:09;6.10;;;3.07;;
3747;SDS011;1889;50.058;8.688;2022-07-29T14:46:38;5.53;;;3.23;;
3747;SDS011;1889;50.058;8.688;2022-07-29T14:49:07;5.17;;;3.10;;
3747;SDS011;1889;50.058;8.688;2022-07-29T14:51:36;5.63;;;3.60;;
3747;SDS011;1889;50.058;8.688;2022-07-29T14:54:05;4.10;;;2.80;;
3747;SDS011;1889;50.058;8.688;2022-07-29T14:56:34;6.20;;;3.37;;
3747;SDS011;1889;50.058;8.688;2022-07-29T14:59:03;13.70;;;3.60;;
3747;SDS011;1889;50.058;8.688;2022-07-29T15:01:32;5.23;;;3.23;;
3747;SDS011;1889;50.058;8.688;2022-07-29T15:04:01;5.63;;;3.47;;
3747;SDS011;1889;50.058;8.688;2022-07-29T15:06:30;7.67;;;3.30;;
3747;SDS011;1889;50.058;8.688;2022-07-29T15:08:59;4.70;;;3.10;;
3747;SDS011;1889;50.058;8.688;2022-07-29T15:11:29;4.30;;;3.23;;
3747;SDS011;1889;50.058;8.688;2022-07-29T15:13:59;3.20;;;2.90;;
3747;SDS011;1889;50.058;8.688;2022-07-29T15:16:28;3.30;;;3.00;;
3747;SDS011;1889;50.058;8.688;2022-07-29T15:18:57;2.90;;;2.60;;
3747;SDS011;1889;50.058;8.688;2022-07-29T15:21:27;4.03;;;2.40;;
3747;SDS011;1889;50.058;8.688;2022-07-29T15:23:56;3.47;;;2.40;;
3747;SDS011;1889;50.058;8.688;2022-07-29T15:26:25;6.23;;;2.50;;
3747;SDS011;1889;50.058;8.688;2022-07-29T15:28:54;3.97;;;3.20;;
3747;SDS011;1889;50.058;8.688;2022-07-29T15:31:23;3.90;;;2.70;;
3747;SDS011;1889;50.058;8.688;2022-07-29T15:33:52;3.43;;;2.80;;
3747;SDS011;1889;50.058;8.688;2022-07-29T15:36:21;4.73;;;2.70;;
3747;SDS011;1889;50.058;8.688;2022-07-29T15:38:56;4.30;;;3.00;;
3747;SDS011;1889;50.058;8.688;2022-07-29T15:41:21;3.47;;;2.60;;
3747;SDS011;1889;50.058;8.688;2022-07-29T15:43:50;3.30;;;3.00;;
3747;SDS011;1889;50.058;8.688;2022-07-29T15:46:19;4.50;;;2.63;;
3747;SDS011;1889;50.058;8.688;2022-07-29T15:49:06;3.53;;;2.77;;
3747;SDS011;1889;50.058;8.688;2022-07-29T15:51:35;4.27;;;2.93;;
3747;SDS011;1889;50.058;8.688;2022-07-29T15:54:05;4.80;;;2.30;;
3747;SDS011;1889;50.058;8.688;2022-07-29T15:56:34;2.47;;;2.27;;
3747;SDS011;1889;50.058;8.688;2022-07-29T15:59:03;2.77;;;2.40;;
3747;SDS011;1889;50.058;8.688;2022-07-29T16:01:32;2.40;;;2.20;;
3747;SDS011;1889;50.058;8.688;2022-07-29T16:04:01;3.13;;;2.00;;
3747;SDS011;1889;50.058;8.688;2022-07-29T16:06:30;3.70;;;2.10;;
3747;SDS011;1889;50.058;8.688;2022-07-29T16:08:59;2.00;;;1.73;;
3747;SDS011;1889;50.058;8.688;2022-07-29T16:11:28;1.90;;;1.80;;
3747;SDS011;1889;50.058;8.688;2022-07-29T16:13:57;2.40;;;2.20;;
3747;SDS011;1889;50.058;8.688;2022-07-29T16:16:26;4.33;;;2.90;;